createdAt,value
2023-03-01T00:02:02.257Z,0.90
2023-03-01T00:04:30.557Z,1.10
2023-03-01T00:07:00.048Z,1.00
2023-03-01T00:09:28.901Z,0.90
2023-03-01T00:11:57.143Z,1.00
2023-03-01T00:14:27.082Z,1.10
2023-03-01T00:16:57.628Z,1.20
2023-03-01T00:19:30.908Z,1.50
2023-03-01T00:22:00.481Z,1.20
2023-03-01T00:24:28.994Z,1.10
2023-03-01T00:29:27.185Z,1.00
2023-03-01T00:31:55.459Z,1.10
2023-03-01T00:34:23.675Z,1.00
2023-03-01T00:36:55.010Z,0.80
2023-03-01T00:39:23.211Z,0.90
2023-03-01T00:41:51.766Z,0.80
2023-03-01T00:44:19.876Z,0.90
2023-03-01T00:46:48.041Z,1.10
2023-03-01T00:49:16.553Z,0.90
2023-03-01T00:51:44.733Z,1.00
2023-03-01T00:54:15.880Z,1.00
2023-03-01T00:56:43.958Z,0.90
2023-03-01T00:59:12.373Z,1.00
2023-03-01T01:01:41.126Z,1.30
2023-03-01T01:04:11.969Z,0.80
2023-03-01T01:06:46.256Z,0.70
2023-03-01T01:09:19.308Z,0.70
2023-03-01T01:11:49.333Z,0.90
2023-03-01T01:14:18.380Z,0.90
2023-03-01T01:16:46.582Z,2.60
2023-03-01T01:19:15.475Z,0.80
2023-03-01T01:21:44.357Z,0.90
2023-03-01T01:24:13.147Z,0.90
2023-03-01T01:26:44.118Z,0.70
2023-03-01T01:29:13.255Z,0.90
2023-03-01T01:31:43.556Z,0.90
2023-03-01T01:34:17.164Z,0.90
2023-03-01T01:36:46.183Z,1.00
2023-03-01T01:39:14.465Z,1.00
2023-03-01T01:41:45.107Z,1.60
2023-03-01T01:44:17.350Z,0.90
2023-03-01T01:46:49.749Z,0.80
2023-03-01T01:49:33.860Z,0.80
2023-03-01T01:54:44.005Z,0.90
2023-03-01T01:57:16.920Z,0.90
2023-03-01T01:59:50.379Z,1.00
2023-03-01T02:02:19.375Z,0.90
2023-03-01T02:04:49.086Z,0.90
2023-03-01T02:07:20.504Z,0.90
2023-03-01T02:09:51.213Z,0.80
2023-03-01T02:14:52.516Z,0.80
2023-03-01T02:20:08.100Z,0.90
2023-03-01T02:22:39.563Z,1.00
2023-03-01T02:25:19.230Z,0.80
2023-03-01T02:27:57.055Z,0.80
2023-03-01T02:30:27.660Z,0.90
2023-03-01T02:33:04.093Z,0.50
2023-03-01T02:35:37.664Z,0.60
2023-03-01T02:38:09.062Z,0.80
2023-03-01T02:40:40.014Z,0.70
2023-03-01T02:43:12.458Z,0.70
2023-03-01T02:50:56.949Z,0.80
2023-03-01T02:53:31.080Z,0.70
2023-03-01T02:58:28.483Z,0.70
2023-03-01T03:00:58.896Z,0.70
2023-03-01T03:05:55.515Z,0.70
2023-03-01T03:08:25.256Z,0.50
2023-03-01T03:10:54.019Z,0.60
2023-03-01T03:13:23.179Z,0.70
2023-03-01T03:15:51.212Z,0.60
2023-03-01T03:18:21.051Z,0.60
2023-03-01T03:20:53.605Z,0.50
2023-03-01T03:23:22.318Z,0.50
2023-03-01T03:25:51.580Z,0.60
2023-03-01T03:28:20.411Z,0.50
2023-03-01T03:30:49.376Z,0.50
2023-03-01T03:33:17.588Z,0.50
2023-03-01T03:35:49.949Z,0.50
2023-03-01T03:38:23.068Z,0.30
2023-03-01T03:40:53.278Z,0.30
2023-03-01T03:43:24.524Z,0.40
2023-03-01T03:45:55.207Z,0.40
2023-03-01T03:48:23.586Z,0.30
2023-03-01T03:50:55.058Z,0.60
2023-03-01T03:53:25.741Z,0.40
2023-03-01T03:55:54.563Z,0.20
2023-03-01T03:58:24.655Z,0.40
2023-03-01T04:00:54.530Z,0.20
2023-03-01T04:03:23.079Z,0.50
2023-03-01T04:05:54.201Z,0.20
2023-03-01T04:08:24.921Z,0.30
2023-03-01T04:10:58.564Z,0.00
2023-03-01T04:13:27.539Z,0.10
2023-03-01T04:15:57.324Z,0.20
2023-03-01T04:18:29.266Z,0.10
2023-03-01T04:20:59.816Z,0.20
2023-03-01T04:23:28.346Z,0.20
2023-03-01T04:25:59.090Z,0.20
2023-03-01T04:28:30.463Z,0.20
2023-03-01T04:31:01.828Z,0.20
2023-03-01T04:33:30.366Z,-0.10
2023-03-01T04:36:00.333Z,0.00
2023-03-01T04:38:28.779Z,0.10
2023-03-01T04:40:57.354Z,0.00
2023-03-01T04:43:26.151Z,0.10
2023-03-01T04:45:54.762Z,0.00
2023-03-01T04:48:23.272Z,-0.10
2023-03-01T04:50:52.202Z,-0.10
2023-03-01T04:53:22.436Z,0.00
2023-03-01T04:55:50.842Z,-0.10
2023-03-01T04:58:19.161Z,0.00
2023-03-01T05:00:47.927Z,0.10
2023-03-01T05:03:19.257Z,1.20
2023-03-01T05:05:49.882Z,0.00
2023-03-01T05:13:23.902Z,-0.10
2023-03-01T05:15:57.851Z,-0.20
2023-03-01T05:18:27.341Z,-0.20
2023-03-01T05:20:59.881Z,-0.20
2023-03-01T05:23:29.594Z,-0.30
2023-03-01T05:26:02.432Z,-0.30
2023-03-01T05:28:30.784Z,-0.30
2023-03-01T05:31:00.214Z,-0.30
2023-03-01T05:33:29.499Z,-0.20
2023-03-01T05:36:01.861Z,-0.20
2023-03-01T05:38:30.494Z,-0.30
2023-03-01T05:41:00.231Z,-0.30
2023-03-01T05:43:32.279Z,-0.40
2023-03-01T05:46:00.863Z,-0.30
2023-03-01T05:48:29.187Z,-0.40
2023-03-01T05:53:28.786Z,-0.30
2023-03-01T05:55:58.622Z,-0.40
2023-03-01T05:58:27.974Z,-0.50
2023-03-01T06:00:57.330Z,-0.40
2023-03-01T06:03:25.265Z,-0.30
2023-03-01T06:05:58.660Z,-0.70
2023-03-01T06:08:28.373Z,-0.30
2023-03-01T06:10:57.150Z,-0.30
2023-03-01T06:13:29.869Z,-0.30
2023-03-01T06:15:58.411Z,-0.20
2023-03-01T06:18:27.177Z,-0.20
2023-03-01T06:20:58.289Z,0.50
2023-03-01T06:23:41.033Z,-0.30
2023-03-01T06:26:11.490Z,-0.20
2023-03-01T06:28:45.573Z,-0.30
2023-03-01T06:31:16.416Z,-0.40
2023-03-01T06:33:45.743Z,-0.50
2023-03-01T06:36:17.590Z,-0.40
2023-03-01T06:38:50.071Z,-0.30
2023-03-01T06:41:20.230Z,-0.40
2023-03-01T06:43:50.311Z,-0.30
2023-03-01T06:46:19.156Z,-0.40
2023-03-01T06:48:48.534Z,-0.30
2023-03-01T06:51:17.830Z,-0.30
2023-03-01T06:53:48.191Z,-0.10
2023-03-01T06:56:16.565Z,-0.20
2023-03-01T06:58:45.072Z,-0.10
2023-03-01T07:01:15.355Z,-0.10
2023-03-01T07:03:45.442Z,0.10
2023-03-01T07:06:13.927Z,-0.10
2023-03-01T07:08:43.120Z,0.00
2023-03-01T07:11:11.426Z,0.00
2023-03-01T07:13:40.553Z,0.40
2023-03-01T07:16:09.975Z,0.00
2023-03-01T07:18:39.844Z,-0.10
2023-03-01T07:21:09.609Z,0.00
2023-03-01T07:23:37.933Z,0.10
2023-03-01T07:26:07.133Z,0.10
2023-03-01T07:28:49.237Z,0.10
2023-03-01T07:31:17.773Z,0.20
2023-03-01T07:33:50.154Z,-0.10
2023-03-01T07:36:18.712Z,0.30
2023-03-01T07:38:53.619Z,0.30
2023-03-01T07:41:22.422Z,0.30
2023-03-01T07:43:51.125Z,0.40
2023-03-01T07:46:20.411Z,0.40
2023-03-01T07:48:50.692Z,0.40
2023-03-01T07:51:21.224Z,0.50
2023-03-01T07:53:50.780Z,0.40
2023-03-01T07:56:19.785Z,0.60
2023-03-01T07:58:49.903Z,0.70
2023-03-01T08:01:22.647Z,0.70
2023-03-01T08:03:52.356Z,0.60
2023-03-01T08:06:21.027Z,0.00
2023-03-01T08:08:49.388Z,0.60
2023-03-01T08:11:19.130Z,0.70
2023-03-01T08:13:51.727Z,0.70
2023-03-01T08:16:23.089Z,0.70
2023-03-01T08:18:52.743Z,1.30
2023-03-01T08:21:21.223Z,0.80
2023-03-01T08:23:49.637Z,0.80
2023-03-01T08:26:20.763Z,0.90
2023-03-01T08:28:50.666Z,0.80
2023-03-01T08:31:21.416Z,1.10
2023-03-01T08:33:52.566Z,1.10
2023-03-01T08:36:22.587Z,1.10
2023-03-01T08:38:50.788Z,1.20
2023-03-01T08:41:19.433Z,1.10
2023-03-01T08:43:48.223Z,1.20
2023-03-01T08:46:16.910Z,1.00
2023-03-01T08:48:45.276Z,1.40
2023-03-01T08:54:21.276Z,1.20
2023-03-01T08:56:50.219Z,1.50
2023-03-01T08:59:19.290Z,1.80
2023-03-01T09:01:47.858Z,1.20
2023-03-01T09:04:18.050Z,1.20
2023-03-01T09:06:46.363Z,1.30
2023-03-01T09:09:19.350Z,1.30
2023-03-01T09:11:48.530Z,1.60
2023-03-01T09:14:17.042Z,1.20
2023-03-01T09:16:46.129Z,1.70
2023-03-01T09:19:14.650Z,1.70
2023-03-01T09:21:53.234Z,1.70
2023-03-01T09:24:25.690Z,2.90
2023-03-01T09:26:56.747Z,1.50
2023-03-01T09:29:25.474Z,1.70
2023-03-01T09:31:56.698Z,1.60
2023-03-01T09:34:26.206Z,1.70
2023-03-01T09:36:54.502Z,1.90
2023-03-01T09:39:26.275Z,2.10
2023-03-01T09:42:03.377Z,2.00
2023-03-01T09:44:37.730Z,1.90
2023-03-01T09:47:06.257Z,1.90
2023-03-01T09:49:37.435Z,2.10
2023-03-01T09:52:15.714Z,2.10
2023-03-01T09:54:46.875Z,2.20
2023-03-01T09:57:24.046Z,3.60
2023-03-01T10:00:19.828Z,2.30
2023-03-01T10:02:55.874Z,3.60
2023-03-01T10:05:52.392Z,2.30
2023-03-01T10:08:41.600Z,2.70
2023-03-01T10:11:25.070Z,2.30
2023-03-01T10:14:00.818Z,2.40
2023-03-01T10:16:36.462Z,2.40
2023-03-01T10:19:08.113Z,2.60
2023-03-01T10:21:43.357Z,2.50
2023-03-01T10:24:14.600Z,2.60
2023-03-01T10:26:51.060Z,2.60
2023-03-01T10:29:22.376Z,2.50
2023-03-01T10:34:24.199Z,2.40
2023-03-01T10:36:55.477Z,2.20
2023-03-01T10:39:26.146Z,2.50
2023-03-01T10:42:01.150Z,2.80
2023-03-01T10:44:42.689Z,3.10
2023-03-01T10:47:17.969Z,2.80
2023-03-01T10:49:58.373Z,2.80
2023-03-01T10:52:30.567Z,2.90
2023-03-01T10:55:00.537Z,3.10
2023-03-01T10:57:42.083Z,3.20
2023-03-01T11:03:40.555Z,3.50
2023-03-01T11:06:22.996Z,3.70
2023-03-01T11:08:51.972Z,4.00
2023-03-01T11:11:26.901Z,4.00
2023-03-01T11:13:59.364Z,4.50
2023-03-01T11:16:37.055Z,4.10
2023-03-01T11:19:21.520Z,4.20
2023-03-01T11:21:56.999Z,6.80
2023-03-01T11:24:33.373Z,4.10
2023-03-01T11:27:08.062Z,4.00
2023-03-01T11:29:48.904Z,4.10
2023-03-01T11:32:18.575Z,4.20
2023-03-01T11:34:54.267Z,4.50
2023-03-01T11:40:13.403Z,4.30
2023-03-01T11:43:01.016Z,4.40
2023-03-01T11:45:41.984Z,6.40
2023-03-01T11:48:50.382Z,4.70
2023-03-01T11:51:40.356Z,4.50
2023-03-01T11:57:57.958Z,4.70
2023-03-01T12:04:31.568Z,3.90
2023-03-01T12:07:12.502Z,4.30
2023-03-01T12:10:25.330Z,4.70
2023-03-01T12:13:09.650Z,4.90
2023-03-01T12:15:55.896Z,5.00
2023-03-01T12:18:55.128Z,5.30
2023-03-01T12:21:37.419Z,5.00
2023-03-01T12:24:41.708Z,5.10
2023-03-01T12:27:36.116Z,5.20
2023-03-01T12:30:22.301Z,5.20
2023-03-01T12:33:15.699Z,5.20
2023-03-01T12:36:07.142Z,5.10
2023-03-01T12:38:42.469Z,5.50
2023-03-01T12:41:26.186Z,5.30
2023-03-01T12:44:06.317Z,5.70
2023-03-01T12:46:47.049Z,5.80
2023-03-01T12:49:20.040Z,6.80
2023-03-01T12:51:57.548Z,6.10
2023-03-01T12:54:30.610Z,6.10
2023-03-01T12:57:02.517Z,6.60
2023-03-01T12:59:37.666Z,6.80
2023-03-01T13:02:17.747Z,6.90
2023-03-01T13:05:05.044Z,7.00
2023-03-01T13:07:39.385Z,6.90
2023-03-01T13:10:25.885Z,7.00
2023-03-01T13:13:03.548Z,7.20
2023-03-01T13:15:35.490Z,6.60
2023-03-01T13:18:06.666Z,6.80
2023-03-01T13:20:49.477Z,7.00
2023-03-01T13:23:28.319Z,7.10
2023-03-01T13:26:12.488Z,7.10
2023-03-01T13:29:06.341Z,7.60
2023-03-01T13:32:02.927Z,7.60
2023-03-01T13:34:49.865Z,7.40
2023-03-01T13:37:30.432Z,7.30
2023-03-01T13:42:48.172Z,8.00
2023-03-01T13:45:26.507Z,7.90
2023-03-01T13:48:01.034Z,8.60
2023-03-01T13:50:36.117Z,7.90
2023-03-01T13:53:09.371Z,7.90
2023-03-01T13:58:19.501Z,8.10
2023-03-01T14:00:48.305Z,8.30
2023-03-01T14:03:22.323Z,8.30
2023-03-01T14:06:15.226Z,8.60
2023-03-01T14:08:47.683Z,8.90
2023-03-01T14:11:36.563Z,8.80
2023-03-01T14:14:31.955Z,8.80
2023-03-01T14:17:13.512Z,8.40
2023-03-01T14:19:45.896Z,8.70
2023-03-01T14:22:21.964Z,8.90
2023-03-01T14:24:54.958Z,9.40
2023-03-01T14:27:23.688Z,9.80
2023-03-01T14:29:58.934Z,9.70
2023-03-01T14:37:31.277Z,10.80
2023-03-01T14:40:03.201Z,10.80
2023-03-01T14:42:36.573Z,10.70
2023-03-01T14:45:06.461Z,10.50
2023-03-01T14:47:37.593Z,10.80
2023-03-01T14:50:10.177Z,10.80
2023-03-01T14:52:41.146Z,10.90
2023-03-01T14:55:20.552Z,10.90
2023-03-01T14:57:53.683Z,11.20
2023-03-01T15:00:25.369Z,11.30
2023-03-01T15:02:55.796Z,11.50
2023-03-01T15:05:30.907Z,11.40
2023-03-01T15:08:00.592Z,11.30
2023-03-01T15:10:34.968Z,11.50
2023-03-01T15:13:14.048Z,11.50
2023-03-01T15:15:51.711Z,10.90
2023-03-01T15:18:38.016Z,10.70
2023-03-01T15:21:19.326Z,10.30
2023-03-01T15:26:58.906Z,10.20
2023-03-01T15:29:31.320Z,10.40
2023-03-01T15:32:01.950Z,10.30
2023-03-01T15:34:33.310Z,10.20
2023-03-01T15:37:03.542Z,9.70
2023-03-01T15:39:39.530Z,9.70
2023-03-01T15:42:13.434Z,6.30
2023-03-01T15:44:46.304Z,11.10
2023-03-01T15:47:30.161Z,9.30
2023-03-01T15:50:04.390Z,9.50
2023-03-01T15:55:25.578Z,11.20
2023-03-01T15:58:02.398Z,11.10
2023-03-01T16:00:31.892Z,9.10
2023-03-01T16:03:02.473Z,9.50
2023-03-01T16:05:34.220Z,8.90
2023-03-01T16:08:17.605Z,8.50
2023-03-01T16:10:46.967Z,8.80
2023-03-01T16:16:21.450Z,8.60
2023-03-01T16:18:49.706Z,7.70
2023-03-01T16:21:39.098Z,7.60
2023-03-01T16:24:11.334Z,7.80
2023-03-01T16:26:51.278Z,7.20
2023-03-01T16:32:46.450Z,8.60
2023-03-01T16:35:19.833Z,6.80
2023-03-01T16:37:49.198Z,6.70
2023-03-01T16:40:21.903Z,6.70
2023-03-01T16:42:51.251Z,6.60
2023-03-01T16:45:25.275Z,6.50
2023-03-01T16:51:26.497Z,6.30
2023-03-01T16:53:56.005Z,6.40
2023-03-01T16:59:22.844Z,6.10
2023-03-01T17:02:05.519Z,6.70
2023-03-01T17:04:37.934Z,6.00
2023-03-01T17:10:07.384Z,5.80
2023-03-01T17:12:36.738Z,5.70
2023-03-01T17:15:08.797Z,5.60
2023-03-01T17:17:38.969Z,5.50
2023-03-01T17:20:08.638Z,5.40
2023-03-01T17:22:38.051Z,5.30
2023-03-01T17:25:09.276Z,2.70
2023-03-01T17:27:39.253Z,5.20
2023-03-01T17:30:11.719Z,3.30
2023-03-01T17:32:41.737Z,5.10
2023-03-01T17:35:12.008Z,5.10
2023-03-01T17:37:46.480Z,5.10
2023-03-01T17:40:15.438Z,5.00
2023-03-01T17:42:44.128Z,5.00
2023-03-01T17:45:12.631Z,4.90
2023-03-01T17:47:41.250Z,8.80
2023-03-01T17:50:22.628Z,6.70
2023-03-01T17:52:52.341Z,4.70
2023-03-01T17:55:21.226Z,4.60
2023-03-01T17:57:50.499Z,4.40
2023-03-01T18:00:22.550Z,4.40
2023-03-01T18:02:51.149Z,4.40
2023-03-01T18:05:19.438Z,4.00
2023-03-01T18:07:47.676Z,4.20
2023-03-01T18:10:19.589Z,3.70
2023-03-01T18:12:57.089Z,4.10
2023-03-01T18:15:25.465Z,4.10
2023-03-01T18:17:54.148Z,0.40
2023-03-01T18:20:24.716Z,4.00
2023-03-01T18:22:52.997Z,3.70
2023-03-01T18:25:22.739Z,3.70
2023-03-01T18:27:52.680Z,3.60
2023-03-01T18:30:21.312Z,3.60
2023-03-01T18:32:56.304Z,3.60
2023-03-01T18:35:24.753Z,3.60
2023-03-01T18:37:52.935Z,3.50
2023-03-01T18:40:22.884Z,3.60
2023-03-01T18:42:50.903Z,3.50
2023-03-01T18:45:19.292Z,3.50
2023-03-01T18:47:49.898Z,3.20
2023-03-01T18:50:21.037Z,3.40
2023-03-01T18:52:49.243Z,3.30
2023-03-01T18:55:17.663Z,3.30
2023-03-01T18:57:47.368Z,3.30
2023-03-01T19:00:18.633Z,3.30
2023-03-01T19:02:47.595Z,5.20
2023-03-01T19:05:17.357Z,3.30
2023-03-01T19:07:46.126Z,3.20
2023-03-01T19:10:14.255Z,4.30
2023-03-01T19:12:42.513Z,3.10
2023-03-01T19:15:12.856Z,3.20
2023-03-01T19:17:40.965Z,3.20
2023-03-01T19:20:10.499Z,3.10
2023-03-01T19:22:38.837Z,3.10
2023-03-01T19:25:08.133Z,3.00
2023-03-01T19:27:36.829Z,2.90
2023-03-01T19:30:05.622Z,2.90
2023-03-01T19:32:35.361Z,2.80
2023-03-01T19:35:03.962Z,5.60
2023-03-01T19:37:35.067Z,2.60
2023-03-01T19:40:03.611Z,2.50
2023-03-01T19:42:34.268Z,2.60
2023-03-01T19:45:03.611Z,2.60
2023-03-01T19:47:32.031Z,2.50
2023-03-01T19:50:01.928Z,2.60
2023-03-01T19:52:30.495Z,4.50
2023-03-01T19:55:08.802Z,2.60
2023-03-01T19:57:38.745Z,2.60
2023-03-01T20:00:12.233Z,2.60
2023-03-01T20:02:41.163Z,2.50
2023-03-01T20:05:12.758Z,2.60
2023-03-01T20:07:43.416Z,2.50
2023-03-01T20:10:14.051Z,2.60
2023-03-01T20:12:42.632Z,2.60
2023-03-01T20:15:12.173Z,2.30
2023-03-01T20:17:40.717Z,2.50
2023-03-01T20:20:14.245Z,2.60
2023-03-01T20:22:43.526Z,2.60
2023-03-01T20:25:15.544Z,2.60
2023-03-01T20:27:47.753Z,2.60
2023-03-01T20:30:17.859Z,2.60
2023-03-01T20:32:47.485Z,2.60
2023-03-01T20:35:18.002Z,2.60
2023-03-01T20:37:46.341Z,2.60
2023-03-01T20:40:14.959Z,2.60
2023-03-01T20:42:43.874Z,6.50
2023-03-01T20:45:12.734Z,2.60
2023-03-01T20:47:40.751Z,2.60
2023-03-01T20:50:09.592Z,2.60
2023-03-01T20:52:47.052Z,2.60
2023-03-01T20:55:16.196Z,2.50
2023-03-01T20:57:44.986Z,2.50
2023-03-01T21:00:13.896Z,2.60
2023-03-01T21:02:42.035Z,2.40
2023-03-01T21:05:11.425Z,2.50
2023-03-01T21:07:41.094Z,2.50
2023-03-01T21:10:15.741Z,2.50
2023-03-01T21:12:43.930Z,2.50
2023-03-01T21:15:23.451Z,2.20
2023-03-01T21:17:58.890Z,2.50
2023-03-01T21:20:26.981Z,2.40
2023-03-01T21:22:56.580Z,2.40
2023-03-01T21:25:24.898Z,2.40
2023-03-01T21:27:53.082Z,2.40
2023-03-01T21:30:21.385Z,2.40
2023-03-01T21:32:49.578Z,2.40
2023-03-01T21:35:18.086Z,2.10
2023-03-01T21:37:46.534Z,2.50
2023-03-01T21:40:17.904Z,2.30
2023-03-01T21:42:48.659Z,2.30
2023-03-01T21:45:17.174Z,2.30
2023-03-01T21:47:45.368Z,2.70
2023-03-01T21:50:14.433Z,1.80
2023-03-01T21:52:42.790Z,3.80
2023-03-01T21:55:13.960Z,2.20
2023-03-01T21:57:44.645Z,2.20
2023-03-01T22:00:15.510Z,2.20
2023-03-01T22:02:43.613Z,2.20
2023-03-01T22:05:12.132Z,2.20
2023-03-01T22:07:40.227Z,2.20
2023-03-01T22:10:09.039Z,2.10
2023-03-01T22:12:38.605Z,2.10
2023-03-01T22:15:09.521Z,1.90
2023-03-01T22:17:37.581Z,2.10
2023-03-01T22:20:06.692Z,4.40
2023-03-01T22:22:35.413Z,2.10
2023-03-01T22:25:03.819Z,1.90
2023-03-01T22:27:32.212Z,1.90
2023-03-01T22:30:00.433Z,1.90
2023-03-01T22:32:30.080Z,3.20
2023-03-01T22:34:58.271Z,1.80
2023-03-01T22:37:26.672Z,1.80
2023-03-01T22:39:54.955Z,1.70
2023-03-01T22:42:26.032Z,0.50
2023-03-01T22:44:54.367Z,1.70
2023-03-01T22:47:24.674Z,1.70
2023-03-01T22:49:56.307Z,1.60
2023-03-01T22:52:24.538Z,1.60
2023-03-01T22:54:55.831Z,1.40
2023-03-01T22:57:24.053Z,0.90
2023-03-01T22:59:52.567Z,1.60
2023-03-01T23:02:20.883Z,2.40
2023-03-01T23:04:49.150Z,2.50
2023-03-01T23:07:18.835Z,1.50
2023-03-01T23:09:47.826Z,1.30
2023-03-01T23:12:17.016Z,1.60
2023-03-01T23:14:45.098Z,1.40
2023-03-01T23:17:14.702Z,0.10
2023-03-01T23:19:42.970Z,-2.20
2023-03-01T23:22:11.415Z,1.40
2023-03-01T23:24:41.454Z,1.90
2023-03-01T23:27:10.166Z,1.40
2023-03-01T23:29:38.646Z,1.30
2023-03-01T23:32:07.370Z,1.30
2023-03-01T23:34:35.878Z,1.30
2023-03-01T23:37:04.557Z,1.30
2023-03-01T23:39:33.493Z,1.10
2023-03-01T23:42:03.514Z,1.00
2023-03-01T23:44:31.862Z,1.80
2023-03-01T23:47:01.084Z,1.20
2023-03-01T23:49:29.263Z,1.20
2023-03-01T23:51:58.673Z,1.20
2023-03-01T23:54:27.560Z,1.20
2023-03-01T23:56:56.237Z,1.20
2023-03-01T23:59:26.152Z,1.30
